Time;durP1;ratioP1;P1;durP2;ratioP2;P2;SDS_P1;SDS_P2;PMS_P1;PMS_P2;Temp;Humidity;BMP_temperature;BMP_pressure;BME280_temperature;BME280_humidity;BME280_pressure;Samples;Min_cycle;Max_cycle;Signal;HPM_P1;HPM_P2
2022/11/28 00:04:35;;;;;;;4.67;3.97;;;6.60;99.90;;;;;;10418226;28;20224;-77
2022/11/28 00:09:35;;;;;;;5.43;3.60;;;6.60;99.90;;;;;;10434192;28;20220;-79
2022/11/28 00:14:42;;;;;;;5.27;3.97;;;6.60;99.90;;;;;;10441457;28;20368;-78
2022/11/28 00:19:43;;;;;;;5.53;4.17;;;6.60;99.90;;;;;;10437752;28;20726;-77
2022/11/28 00:24:43;;;;;;;7.57;4.20;;;6.50;99.90;;;;;;10438251;28;20285;-76
2022/11/28 00:29:50;;;;;;;4.63;4.00;;;6.40;99.90;;;;;;10439798;28;20227;-76
2022/11/28 00:34:50;;;;;;;4.20;3.63;;;6.30;99.90;;;;;;10431649;28;20820;-75
2022/11/28 00:39:51;;;;;;;4.90;4.33;;;6.30;99.90;;;;;;10432210;28;20348;-75
2022/11/28 00:44:51;;;;;;;4.27;3.87;;;6.20;99.90;;;;;;10443665;28;20216;-75
2022/11/28 00:49:52;;;;;;;4.60;4.20;;;6.10;99.90;;;;;;10444419;28;20219;-77
2022/11/28 00:54:53;;;;;;;5.23;4.20;;;6.10;99.90;;;;;;10447201;28;20214;-77
2022/11/28 00:59:53;;;;;;;5.20;4.37;;;6.20;99.90;;;;;;10427559;28;20247;-77
2022/11/28 01:04:54;;;;;;;5.37;4.00;;;6.30;99.90;;;;;;10427464;28;20311;-77
2022/11/28 01:09:54;;;;;;;6.60;4.17;;;6.30;99.90;;;;;;10433138;28;20252;-76
2022/11/28 01:14:57;;;;;;;4.60;4.00;;;6.30;99.90;;;;;;10438492;28;20224;-76
2022/11/28 01:19:57;;;;;;;4.43;4.03;;;6.40;99.90;;;;;;10438702;28;20216;-76
2022/11/28 01:24:58;;;;;;;6.17;4.67;;;6.40;99.90;;;;;;10437267;28;20212;-76
2022/11/28 01:29:58;;;;;;;4.87;4.10;;;6.50;99.90;;;;;;10438836;28;20319;-76
2022/11/28 01:34:59;;;;;;;5.87;4.70;;;6.50;99.90;;;;;;10452014;28;20581;-77
2022/11/28 01:39:59;;;;;;;6.00;4.70;;;6.50;99.90;;;;;;10441064;28;20216;-76
2022/11/28 01:45:05;;;;;;;6.90;5.20;;;6.50;99.90;;;;;;10449202;28;20237;-76
2022/11/28 01:50:07;;;;;;;5.40;4.90;;;6.40;99.90;;;;;;10439021;28;20228;-77
2022/11/28 01:55:11;;;;;;;6.80;5.43;;;6.30;99.90;;;;;;10441335;28;20320;-77
2022/11/28 02:00:17;;;;;;;5.97;5.23;;;6.30;99.90;;;;;;10437320;28;20187;-76
2022/11/28 02:05:20;;;;;;;5.63;4.87;;;6.20;99.90;;;;;;10438475;28;20670;-75
2022/11/28 02:10:31;;;;;;;6.90;5.30;;;6.30;99.90;;;;;;10429717;28;20208;-76
2022/11/28 02:15:36;;;;;;;5.80;4.97;;;6.30;99.90;;;;;;10448461;28;20686;-76
2022/11/28 02:20:59;;;;;;;7.10;5.63;;;6.30;99.90;;;;;;10465645;28;20219;-76
2022/11/28 02:26:26;;;;;;;6.53;5.33;;;6.30;99.90;;;;;;10434723;28;20228;-76
2022/11/28 02:31:37;;;;;;;7.00;5.77;;;6.20;99.90;;;;;;10423610;28;20700;-77
2022/11/28 02:36:49;;;;;;;5.60;4.70;;;6.30;99.90;;;;;;10434629;28;20231;-76
2022/11/28 02:42:12;;;;;;;5.97;5.30;;;6.30;99.90;;;;;;10426627;28;20217;-76
2022/11/28 02:47:36;;;;;;;8.20;6.30;;;6.30;99.90;;;;;;10441344;28;20699;-76
2022/11/28 02:52:43;;;;;;;6.83;5.90;;;6.30;99.90;;;;;;10435465;28;20756;-76
2022/11/28 02:57:50;;;;;;;7.17;5.77;;;6.30;99.90;;;;;;10427039;28;20245;-75
2022/11/28 03:02:59;;;;;;;7.63;5.73;;;6.30;99.90;;;;;;10420557;28;20224;-77
2022/11/28 03:08:30;;;;;;;8.77;6.13;;;6.20;99.90;;;;;;10444124;28;20221;-77
2022/11/28 03:13:55;;;;;;;7.87;6.20;;;6.10;99.90;;;;;;10440582;28;20219;-76
2022/11/28 03:19:18;;;;;;;7.37;5.60;;;6.10;99.90;;;;;;10441148;28;20684;-75
2022/11/28 03:24:26;;;;;;;7.83;5.73;;;6.00;99.90;;;;;;10426632;28;20208;-76
2022/11/28 03:29:43;;;;;;;6.67;5.67;;;6.00;99.90;;;;;;10425377;28;20220;-76
2022/11/28 03:34:48;;;;;;;7.67;5.83;;;6.00;99.90;;;;;;10427180;28;20212;-77
2022/11/28 03:39:56;;;;;;;6.53;5.60;;;6.00;99.90;;;;;;10446719;28;20257;-78
2022/11/28 03:45:21;;;;;;;6.80;5.30;;;6.00;99.90;;;;;;10429850;28;20212;-79
2022/11/28 03:50:54;;;;;;;6.80;6.10;;;5.90;99.90;;;;;;10432972;28;20235;-80
2022/11/28 03:56:03;;;;;;;8.27;6.60;;;5.90;99.90;;;;;;10462948;28;20212;-78
2022/11/28 04:01:24;;;;;;;9.07;7.20;;;5.90;99.90;;;;;;10431794;28;20237;-78
2022/11/28 04:06:32;;;;;;;11.30;8.50;;;5.80;99.90;;;;;;10455963;28;20231;-76
2022/11/28 04:11:59;;;;;;;11.63;9.00;;;5.80;99.90;;;;;;10427873;28;20235;-74
2022/11/28 04:17:11;;;;;;;11.20;8.37;;;5.80;99.90;;;;;;10441112;28;20690;-74
2022/11/28 04:22:47;;;;;;;10.40;7.97;;;5.80;99.90;;;;;;10426536;28;20259;-74
2022/11/28 04:28:13;;;;;;;8.83;7.57;;;5.70;99.90;;;;;;10441243;28;20232;-76
2022/11/28 04:33:17;;;;;;;9.20;7.70;;;5.60;99.90;;;;;;10425582;28;20750;-76
2022/11/28 04:38:20;;;;;;;9.20;7.63;;;5.70;99.90;;;;;;10418681;28;20227;-75
2022/11/28 04:43:26;;;;;;;8.93;7.83;;;5.70;99.90;;;;;;10430024;28;20224;-75
2022/11/28 04:48:31;;;;;;;9.03;6.77;;;5.60;99.90;;;;;;10433922;28;20227;-77
2022/11/28 04:53:39;;;;;;;9.60;7.30;;;5.60;99.90;;;;;;10435352;28;20216;-77
2022/11/28 04:58:44;;;;;;;7.37;6.20;;;5.70;99.90;;;;;;10411216;28;20316;-77
2022/11/28 05:03:44;;;;;;;7.80;6.47;;;5.70;99.90;;;;;;10402440;28;20235;-76
2022/11/28 05:08:45;;;;;;;7.97;6.37;;;5.70;99.90;;;;;;10389027;28;20237;-77
2022/11/28 05:13:46;;;;;;;6.70;5.80;;;5.70;99.90;;;;;;10401522;28;20209;-76
2022/11/28 05:18:47;;;;;;;7.30;6.27;;;5.80;99.90;;;;;;10406554;28;20216;-76
2022/11/28 05:23:48;;;;;;;6.70;6.00;;;5.80;99.90;;;;;;10397941;28;20236;-77
2022/11/28 05:28:49;;;;;;;7.67;5.63;;;5.80;99.90;;;;;;10389715;28;20221;-77
2022/11/28 05:33:50;;;;;;;11.60;7.40;;;5.80;99.90;;;;;;10399170;28;20271;-76
2022/11/28 05:38:50;;;;;;;11.60;7.93;;;5.90;99.90;;;;;;10403480;28;20228;-73
2022/11/28 05:43:51;;;;;;;11.23;8.27;;;5.90;99.90;;;;;;10384145;28;20213;-72
2022/11/28 05:48:52;;;;;;;8.43;6.57;;;6.00;99.90;;;;;;10389467;28;20581;-74
2022/11/28 05:53:52;;;;;;;14.80;9.40;;;5.90;99.90;;;;;;10393827;28;20232;-78
2022/11/28 05:58:53;;;;;;;12.27;9.00;;;5.90;99.90;;;;;;10396960;28;20221;-78
2022/11/28 06:03:59;;;;;;;9.53;7.40;;;5.90;99.90;;;;;;10393398;28;20307;-77
2022/11/28 06:09:00;;;;;;;9.10;6.63;;;5.90;99.90;;;;;;10386896;28;20225;-73
2022/11/28 06:14:02;;;;;;;7.97;5.87;;;5.80;99.90;;;;;;10401713;28;20797;-76
2022/11/28 06:19:04;;;;;;;8.97;6.90;;;5.90;99.90;;;;;;10392381;28;20220;-76
2022/11/28 06:24:05;;;;;;;7.53;5.70;;;6.00;99.90;;;;;;10401643;28;20224;-76
2022/11/28 06:29:06;;;;;;;6.90;5.70;;;6.00;99.90;;;;;;10403320;28;20239;-79
2022/11/28 06:34:07;;;;;;;6.87;5.30;;;6.00;99.90;;;;;;10396984;28;20224;-77
2022/11/28 06:39:12;;;;;;;9.83;6.37;;;6.00;99.90;;;;;;10382504;28;20283;-77
2022/11/28 06:44:14;;;;;;;8.00;6.27;;;6.00;99.90;;;;;;10386993;28;20217;-81
2022/11/28 06:49:15;;;;;;;10.23;7.00;;;6.00;99.90;;;;;;10426857;28;20706;-74
2022/11/28 06:54:15;;;;;;;7.80;5.90;;;6.00;99.90;;;;;;10403991;28;20266;-72
2022/11/28 06:59:16;;;;;;;9.73;6.20;;;6.00;99.90;;;;;;10397350;28;20240;-73
2022/11/28 07:04:16;;;;;;;7.37;6.00;;;5.90;99.90;;;;;;10399806;28;20365;-72
2022/11/28 07:09:17;;;;;;;13.67;6.87;;;5.90;99.90;;;;;;10389455;28;20657;-72
2022/11/28 07:14:18;;;;;;;8.10;6.43;;;5.90;99.90;;;;;;10392918;28;20228;-72
2022/11/28 07:19:21;;;;;;;7.73;6.20;;;5.90;99.90;;;;;;10394621;28;20220;-73
2022/11/28 07:24:22;;;;;;;10.83;7.10;;;6.00;99.90;;;;;;10400736;28;20314;-72
2022/11/28 07:29:23;;;;;;;8.63;7.13;;;6.00;99.90;;;;;;10446134;28;20311;-73
2022/11/28 07:34:24;;;;;;;8.03;6.00;;;6.00;99.90;;;;;;10439353;28;20300;-73
2022/11/28 07:39:24;;;;;;;7.53;6.03;;;6.10;99.90;;;;;;10442281;28;20710;-73
2022/11/28 07:44:25;;;;;;;8.43;6.43;;;6.10;99.90;;;;;;10430463;28;20735;-72
2022/11/28 07:49:26;;;;;;;7.63;6.00;;;6.00;99.90;;;;;;10442547;28;20284;-76
2022/11/28 07:54:26;;;;;;;10.23;6.93;;;6.00;99.90;;;;;;10429735;28;20218;-76
2022/11/28 07:59:27;;;;;;;7.50;6.57;;;6.00;99.90;;;;;;10440349;28;20281;-78
2022/11/28 08:04:27;;;;;;;9.90;5.53;;;6.10;99.90;;;;;;10444090;28;20227;-77
2022/11/28 08:09:29;;;;;;;9.77;6.90;;;6.10;99.90;;;;;;10436842;28;20240;-78
2022/11/28 08:14:30;;;;;;;9.80;7.23;;;6.20;99.90;;;;;;10438370;28;20238;-78
2022/11/28 08:19:30;;;;;;;10.40;7.60;;;6.30;99.90;;;;;;10433717;28;20252;-78
2022/11/28 08:24:31;;;;;;;11.27;7.60;;;6.40;99.90;;;;;;10431870;28;20246;-78
2022/11/28 08:29:31;;;;;;;8.67;7.40;;;6.50;99.90;;;;;;10429378;28;20699;-78
2022/11/28 08:34:32;;;;;;;11.13;8.53;;;6.60;99.90;;;;;;10419723;28;20204;-76
2022/11/28 08:39:33;;;;;;;10.43;8.50;;;6.70;99.90;;;;;;10444607;28;20261;-79
2022/11/28 08:44:33;;;;;;;12.50;8.70;;;6.80;99.90;;;;;;10442437;28;20220;-80
2022/11/28 08:49:36;;;;;;;10.83;8.17;;;6.90;99.90;;;;;;10448272;28;20260;-78
2022/11/28 08:54:36;;;;;;;13.83;8.83;;;7.00;99.90;;;;;;10427309;28;20215;-78
2022/11/28 08:59:37;;;;;;;11.23;8.37;;;7.20;99.90;;;;;;10436523;28;20323;-79
2022/11/28 09:04:37;;;;;;;11.40;8.00;;;7.30;99.90;;;;;;10446248;28;20568;-78
2022/11/28 09:09:38;;;;;;;12.53;7.93;;;7.40;99.90;;;;;;10426922;28;20227;-79
2022/11/28 09:14:39;;;;;;;10.97;8.30;;;7.50;99.90;;;;;;10445906;28;20252;-78
2022/11/28 09:19:39;;;;;;;11.50;8.07;;;7.70;99.90;;;;;;10432544;28;20325;-78
2022/11/28 09:24:40;;;;;;;11.10;8.90;;;7.80;99.90;;;;;;10441099;28;20278;-78
2022/11/28 09:29:41;;;;;;;10.70;8.20;;;7.80;99.90;;;;;;10425366;28;20225;-77
2022/11/28 09:34:41;;;;;;;8.70;7.37;;;8.00;99.90;;;;;;10441148;28;20206;-78
2022/11/28 09:39:42;;;;;;;11.27;7.53;;;8.20;99.90;;;;;;10435022;28;20210;-77
2022/11/28 09:44:57;;;;;;;12.10;7.20;;;8.40;99.90;;;;;;10440199;28;20211;-78
2022/11/28 09:50:13;;;;;;;9.23;7.07;;;8.70;99.90;;;;;;10428896;28;20227;-79
2022/11/28 09:55:23;;;;;;;10.97;7.60;;;8.90;99.90;;;;;;10422081;28;20216;-78
2022/11/28 10:00:43;;;;;;;9.67;7.17;;;9.00;99.90;;;;;;10436330;28;20191;-79
2022/11/28 10:05:56;;;;;;;9.43;7.17;;;9.20;99.90;;;;;;10441643;28;20219;-76
2022/11/28 10:11:11;;;;;;;10.00;7.47;;;9.20;99.90;;;;;;10429761;28;20327;-79
2022/11/28 10:16:25;;;;;;;14.53;7.93;;;9.10;99.90;;;;;;10423131;28;20785;-78
2022/11/28 10:21:34;;;;;;;13.70;8.33;;;8.90;99.90;;;;;;10442869;28;20218;-78
2022/11/28 10:26:41;;;;;;;10.67;7.90;;;9.00;99.90;;;;;;10437869;28;20330;-77
2022/11/28 10:31:44;;;;;;;10.20;8.00;;;8.90;99.90;;;;;;10423687;28;20231;-79
2022/11/28 10:36:49;;;;;;;9.90;7.87;;;8.80;99.90;;;;;;10443451;28;20219;-78
2022/11/28 10:42:10;;;;;;;12.47;8.50;;;8.80;99.90;;;;;;10443536;28;20317;-78
2022/11/28 10:47:29;;;;;;;9.77;7.93;;;8.70;99.90;;;;;;10443719;28;20773;-78
2022/11/28 10:52:47;;;;;;;10.23;7.43;;;8.70;99.90;;;;;;10432485;28;20269;-76
2022/11/28 10:57:48;;;;;;;9.90;7.97;;;8.60;99.90;;;;;;10444732;28;20223;-77
2022/11/28 11:02:51;;;;;;;10.50;8.30;;;8.70;99.90;;;;;;10432026;28;20217;-76
2022/11/28 11:07:53;;;;;;;11.70;8.17;;;8.80;99.90;;;;;;10429218;28;20226;-75
2022/11/28 11:12:54;;;;;;;13.20;8.33;;;9.00;99.90;;;;;;10431324;28;20215;-75
2022/11/28 11:17:55;;;;;;;11.03;8.47;;;9.10;99.90;;;;;;10447067;28;20216;-76
2022/11/28 11:23:01;;;;;;;14.10;8.70;;;9.10;99.90;;;;;;10445612;28;20235;-78
2022/11/28 11:28:03;;;;;;;10.00;8.37;;;9.10;99.90;;;;;;10428109;28;20300;-79
2022/11/28 11:33:11;;;;;;;9.50;8.03;;;9.10;99.90;;;;;;10446479;28;20240;-78
2022/11/28 11:38:27;;;;;;;11.13;7.67;;;9.20;99.90;;;;;;10449154;28;20214;-79
2022/11/28 11:43:30;;;;;;;10.37;7.93;;;9.30;99.90;;;;;;10441354;28;20230;-79
2022/11/28 11:48:37;;;;;;;12.57;8.37;;;9.40;99.90;;;;;;10443616;28;20227;-79
2022/11/28 11:53:38;;;;;;;10.57;7.93;;;9.50;99.90;;;;;;10448338;28;20242;-79
2022/11/28 11:58:47;;;;;;;11.60;8.13;;;9.50;99.90;;;;;;10442179;28;20239;-77
2022/11/28 12:04:05;;;;;;;11.67;7.70;;;9.60;99.90;;;;;;10437734;28;20226;-76
2022/11/28 12:09:37;;;;;;;9.37;7.40;;;9.70;99.90;;;;;;10441889;28;20232;-77
2022/11/28 12:14:38;;;;;;;9.30;8.10;;;9.80;99.90;;;;;;10444856;28;20302;-76
2022/11/28 12:20:06;;;;;;;10.67;8.00;;;9.80;99.90;;;;;;10441399;28;20214;-75
2022/11/28 12:25:40;;;;;;;10.50;8.27;;;9.70;99.90;;;;;;10437716;28;20226;-78
2022/11/28 12:30:56;;;;;;;13.50;8.43;;;9.60;99.90;;;;;;10448880;28;20234;-76
2022/11/28 12:36:11;;;;;;;18.07;9.73;;;9.40;99.90;;;;;;10442949;28;20291;-76
2022/11/28 12:41:31;;;;;;;13.30;8.87;;;9.20;99.90;;;;;;10431524;28;20627;-79
2022/11/28 12:46:39;;;;;;;13.60;9.17;;;9.20;99.90;;;;;;10439444;28;20219;-79
2022/11/28 12:51:59;;;;;;;14.43;8.93;;;9.10;99.90;;;;;;10439897;28;20241;-78
2022/11/28 12:57:24;;;;;;;12.13;9.17;;;9.10;99.90;;;;;;10440735;28;20227;-76
2022/11/28 13:03:05;;;;;;;15.33;9.07;;;9.10;99.90;;;;;;10443904;28;20214;-77
2022/11/28 13:08:39;;;;;;;11.33;9.17;;;9.10;99.90;;;;;;10441466;28;20224;-76
2022/11/28 13:13:56;;;;;;;11.00;8.60;;;9.10;99.90;;;;;;10438198;28;20322;-77
2022/11/28 13:19:07;;;;;;;10.97;8.33;;;9.20;99.90;;;;;;10439328;28;20317;-75
2022/11/28 13:24:30;;;;;;;13.00;9.50;;;9.20;99.90;;;;;;10437154;28;20777;-77
2022/11/28 13:29:41;;;;;;;10.37;8.23;;;9.20;99.90;;;;;;10451325;28;20589;-77
2022/11/28 13:34:43;;;;;;;9.77;8.53;;;9.10;99.90;;;;;;10441561;28;20288;-75
2022/11/28 13:39:56;;;;;;;11.57;8.77;;;9.10;99.90;;;;;;10444865;28;20223;-78
2022/11/28 13:45:01;;;;;;;12.67;9.67;;;9.20;99.90;;;;;;10437195;28;20230;-77
2022/11/28 13:50:21;;;;;;;13.60;10.23;;;9.20;99.90;;;;;;10451727;28;20226;-78
2022/11/28 13:56:11;;;;;;;10.33;8.73;;;9.20;99.90;;;;;;10429934;28;20226;-77
2022/11/28 14:01:17;;;;;;;10.67;8.47;;;9.20;99.90;;;;;;10444163;28;20212;-77
2022/11/28 14:06:24;;;;;;;11.33;8.80;;;9.20;99.90;;;;;;10445853;28;20254;-75
2022/11/28 14:11:52;;;;;;;11.53;8.93;;;9.10;99.90;;;;;;10450205;28;20317;-76
2022/11/28 14:17:29;;;;;;;12.97;9.57;;;9.10;99.90;;;;;;10436441;28;20234;-79
2022/11/28 14:22:58;;;;;;;14.50;9.87;;;9.20;99.90;;;;;;10462885;28;20630;-79
2022/11/28 14:28:04;;;;;;;14.00;9.40;;;9.20;99.90;;;;;;10474813;28;20343;-79
2022/11/28 14:33:14;;;;;;;12.97;8.77;;;9.20;99.90;;;;;;10439081;28;20231;-79
2022/11/28 14:38:29;;;;;;;13.10;9.33;;;9.10;99.90;;;;;;10446506;28;20235;-77
2022/11/28 14:43:39;;;;;;;12.67;7.93;;;9.00;99.90;;;;;;10440379;28;20219;-77
2022/11/28 14:49:01;;;;;;;13.93;9.47;;;8.90;99.90;;;;;;10442556;28;20215;-77
2022/11/28 14:54:02;;;;;;;11.00;9.10;;;8.90;99.90;;;;;;10449613;28;20717;-77
2022/11/28 14:59:03;;;;;;;11.63;9.37;;;8.80;99.90;;;;;;10437715;28;20257;-79
2022/11/28 15:04:13;;;;;;;13.43;8.60;;;8.70;99.90;;;;;;10442141;28;20214;-79
2022/11/28 15:09:41;;;;;;;11.57;9.37;;;8.70;99.90;;;;;;10442308;28;20239;-79
2022/11/28 15:14:45;;;;;;;12.27;9.47;;;8.60;99.90;;;;;;10449461;28;20220;-78
2022/11/28 15:19:48;;;;;;;16.30;9.93;;;8.50;99.90;;;;;;10438883;28;20227;-79
2022/11/28 15:24:51;;;;;;;12.47;10.03;;;8.40;99.90;;;;;;10448603;28;20230;-78
2022/11/28 15:29:57;;;;;;;13.77;10.33;;;8.30;99.90;;;;;;10439667;28;20230;-79
2022/11/28 15:35:03;;;;;;;13.83;10.23;;;8.30;99.90;;;;;;10442245;28;20302;-78
2022/11/28 15:40:05;;;;;;;14.80;10.40;;;8.20;99.90;;;;;;10461690;28;20284;-76
2022/11/28 15:45:22;;;;;;;14.03;10.30;;;8.20;99.90;;;;;;10446930;28;20717;-78
2022/11/28 15:50:31;;;;;;;15.33;11.67;;;8.10;99.90;;;;;;10459105;28;20219;-77
2022/11/28 15:55:33;;;;;;;18.77;11.50;;;8.10;99.90;;;;;;10438505;28;20220;-77
2022/11/28 16:00:34;;;;;;;13.67;11.03;;;8.00;99.90;;;;;;10443945;28;20214;-75
2022/11/28 16:05:34;;;;;;;14.90;11.40;;;7.90;99.90;;;;;;10441910;28;20720;-75
2022/11/28 16:10:36;;;;;;;14.03;10.60;;;7.90;99.90;;;;;;10444981;28;20245;-74
2022/11/28 16:15:37;;;;;;;15.10;12.43;;;7.80;99.90;;;;;;10437946;28;20236;-75
2022/11/28 16:20:38;;;;;;;16.87;12.50;;;7.80;99.90;;;;;;10436434;28;20225;-78
2022/11/28 16:25:38;;;;;;;14.90;11.17;;;7.80;99.90;;;;;;10443281;28;20724;-77
2022/11/28 16:30:47;;;;;;;14.83;11.50;;;7.80;99.90;;;;;;10450775;28;20235;-79
2022/11/28 16:35:48;;;;;;;13.83;11.13;;;7.80;99.90;;;;;;10439475;28;20249;-76
2022/11/28 16:40:59;;;;;;;13.33;10.93;;;7.80;99.90;;;;;;10448117;28;20253;-75
2022/11/28 16:46:03;;;;;;;11.27;10.07;;;7.80;99.90;;;;;;10447810;28;20287;-77
2022/11/28 16:51:09;;;;;;;14.37;11.53;;;7.80;99.90;;;;;;10446407;28;20234;-75
2022/11/28 16:56:25;;;;;;;14.07;11.00;;;7.80;99.90;;;;;;10433997;28;20771;-75
2022/11/28 17:01:27;;;;;;;14.23;12.00;;;7.90;99.90;;;;;;10438464;28;20227;-76
2022/11/28 17:06:35;;;;;;;12.87;10.67;;;7.90;99.90;;;;;;10438654;28;20228;-75
2022/11/28 17:11:41;;;;;;;15.53;12.00;;;7.90;99.90;;;;;;10444633;28;20375;-76
2022/11/28 17:16:42;;;;;;;14.23;10.87;;;7.90;99.90;;;;;;10451052;28;20764;-74
2022/11/28 17:21:45;;;;;;;15.90;11.30;;;7.90;99.90;;;;;;10438684;28;20280;-74
2022/11/28 17:26:47;;;;;;;12.47;10.57;;;7.90;99.90;;;;;;10439080;28;20222;-75
2022/11/28 17:31:49;;;;;;;14.30;11.40;;;7.90;99.90;;;;;;10453205;28;20236;-75
2022/11/28 17:36:50;;;;;;;11.37;10.07;;;7.90;99.90;;;;;;10454325;28;20271;-73
2022/11/28 17:41:50;;;;;;;15.63;11.60;;;7.90;99.90;;;;;;10453752;28;20648;-74
2022/11/28 17:46:54;;;;;;;14.70;12.37;;;7.90;99.90;;;;;;10444529;28;20316;-74
2022/11/28 17:51:58;;;;;;;15.37;13.03;;;7.90;99.90;;;;;;10446504;28;20239;-72
2022/11/28 17:56:58;;;;;;;16.90;13.00;;;7.90;99.90;;;;;;10424286;28;20224;-74
2022/11/28 18:01:59;;;;;;;14.83;12.57;;;7.90;99.90;;;;;;10463910;28;20232;-74
2022/11/28 18:07:00;;;;;;;15.27;12.60;;;7.90;99.90;;;;;;10450694;28;20461;-74
2022/11/28 18:12:01;;;;;;;15.17;12.30;;;7.90;99.90;;;;;;10448706;28;20274;-75
2022/11/28 18:17:01;;;;;;;17.57;12.23;;;7.90;99.90;;;;;;10450954;28;20253;-75
2022/11/28 18:22:02;;;;;;;18.93;13.23;;;7.90;99.90;;;;;;10448862;28;20288;-74
2022/11/28 18:27:03;;;;;;;18.37;14.97;;;7.90;99.90;;;;;;10449671;28;20222;-74
2022/11/28 18:32:03;;;;;;;20.07;14.73;;;7.90;99.90;;;;;;10454466;28;20230;-77
2022/11/28 18:37:04;;;;;;;18.03;13.87;;;7.90;99.90;;;;;;10451579;28;20946;-79
2022/11/28 18:42:04;;;;;;;18.90;14.07;;;7.90;99.90;;;;;;10453741;28;20220;-74
2022/11/28 18:47:05;;;;;;;19.30;14.23;;;7.90;99.90;;;;;;10442598;28;20233;-74
2022/11/28 18:52:06;;;;;;;20.40;15.23;;;7.90;99.90;;;;;;10432414;28;20321;-75
2022/11/28 18:57:07;;;;;;;20.90;16.70;;;7.90;99.90;;;;;;10433724;28;20280;-74
2022/11/28 19:02:11;;;;;;;22.60;16.17;;;7.90;99.90;;;;;;10446792;28;20219;-75
2022/11/28 19:07:11;;;;;;;16.80;13.90;;;7.90;99.90;;;;;;10435699;28;20343;-74
2022/11/28 19:12:12;;;;;;;31.47;21.33;;;7.90;99.90;;;;;;10435364;28;20574;-78
2022/11/28 19:17:13;;;;;;;23.20;16.43;;;7.90;99.90;;;;;;10445927;28;20764;-76
2022/11/28 19:22:13;;;;;;;20.17;15.50;;;7.90;99.90;;;;;;10445928;28;20679;-75
2022/11/28 19:27:15;;;;;;;15.30;13.37;;;7.90;99.90;;;;;;10449095;28;20225;-77
2022/11/28 19:32:16;;;;;;;16.10;12.30;;;7.90;99.90;;;;;;10444272;28;20239;-77
2022/11/28 19:37:17;;;;;;;19.90;14.23;;;7.90;99.90;;;;;;10447519;28;20232;-77
2022/11/28 19:42:18;;;;;;;24.77;15.97;;;7.90;99.90;;;;;;10448452;28;20218;-76
2022/11/28 19:47:18;;;;;;;16.83;13.73;;;7.90;99.90;;;;;;10447051;28;20279;-78
2022/11/28 19:52:19;;;;;;;17.73;13.30;;;7.90;99.90;;;;;;10447051;28;20324;-73
2022/11/28 19:57:20;;;;;;;17.03;12.40;;;7.90;99.90;;;;;;10444137;28;20250;-76
2022/11/28 20:02:22;;;;;;;15.33;12.37;;;7.90;99.90;;;;;;10442608;28;20221;-76
2022/11/28 20:07:22;;;;;;;15.93;12.80;;;7.90;99.90;;;;;;10448165;28;20231;-79
2022/11/28 20:12:23;;;;;;;17.27;13.53;;;7.90;99.90;;;;;;10444104;28;20210;-78
2022/11/28 20:17:23;;;;;;;16.83;12.63;;;7.90;99.90;;;;;;10439148;28;20338;-76
2022/11/28 20:22:24;;;;;;;15.60;11.70;;;7.90;99.90;;;;;;10435654;28;20712;-75
2022/11/28 20:27:28;;;;;;;15.00;12.37;;;7.90;99.90;;;;;;10431161;28;20683;-75
2022/11/28 20:32:28;;;;;;;14.30;11.33;;;8.00;99.90;;;;;;10445428;28;20216;-74
2022/11/28 20:37:29;;;;;;;16.33;13.17;;;8.00;99.90;;;;;;10452040;28;20217;-75
2022/11/28 20:42:31;;;;;;;14.63;12.13;;;8.00;99.90;;;;;;10454018;28;20587;-74
2022/11/28 20:47:33;;;;;;;15.57;13.23;;;8.00;99.90;;;;;;10469602;28;20234;-76
2022/11/28 20:52:37;;;;;;;17.67;15.27;;;8.10;99.90;;;;;;10446573;28;20225;-74
2022/11/28 20:57:37;;;;;;;17.43;14.87;;;8.10;99.90;;;;;;10447780;28;20219;-73
2022/11/28 21:02:38;;;;;;;21.37;16.70;;;8.10;99.90;;;;;;10452016;28;20296;-73
2022/11/28 21:07:38;;;;;;;18.67;14.93;;;8.10;99.90;;;;;;10445778;28;20211;-73
2022/11/28 21:12:39;;;;;;;17.00;14.80;;;8.10;99.90;;;;;;10437799;28;20229;-71
2022/11/28 21:17:40;;;;;;;19.47;16.40;;;8.20;99.90;;;;;;10430830;28;20246;-73
2022/11/28 21:22:42;;;;;;;16.87;14.90;;;8.20;99.90;;;;;;10443667;28;20210;-73
2022/11/28 21:27:42;;;;;;;22.83;14.50;;;8.20;99.90;;;;;;10443623;28;20288;-73
2022/11/28 21:32:43;;;;;;;18.80;13.83;;;8.20;99.90;;;;;;10448556;28;20755;-72
2022/11/28 21:37:43;;;;;;;16.20;12.47;;;8.20;99.90;;;;;;10451004;28;20273;-73
2022/11/28 21:42:44;;;;;;;16.83;12.90;;;8.20;99.90;;;;;;10434024;28;20635;-73
2022/11/28 21:47:44;;;;;;;15.73;12.73;;;8.20;99.90;;;;;;10435942;28;20719;-74
2022/11/28 21:52:45;;;;;;;16.40;13.80;;;8.30;99.90;;;;;;10435380;28;20266;-73
2022/11/28 21:57:45;;;;;;;14.60;13.10;;;8.30;99.90;;;;;;10464210;28;20282;-72
2022/11/28 22:02:48;;;;;;;16.40;13.20;;;8.30;99.90;;;;;;10449428;28;20305;-72
2022/11/28 22:07:48;;;;;;;14.90;13.10;;;8.30;99.90;;;;;;10434274;28;20714;-72
2022/11/28 22:12:49;;;;;;;15.93;13.50;;;8.30;99.90;;;;;;10449009;28;20218;-72
2022/11/28 22:17:50;;;;;;;14.80;11.23;;;8.30;99.90;;;;;;10437914;28;20706;-73
2022/11/28 22:22:50;;;;;;;16.93;12.77;;;8.30;99.90;;;;;;10434325;28;20237;-72
2022/11/28 22:27:51;;;;;;;14.87;12.57;;;8.30;99.90;;;;;;10427685;28;20795;-72
2022/11/28 22:32:51;;;;;;;13.27;11.37;;;8.30;99.90;;;;;;10449672;28;20217;-73
2022/11/28 22:37:53;;;;;;;12.83;11.27;;;8.30;99.90;;;;;;10450884;28;20223;-70
2022/11/28 22:42:54;;;;;;;14.03;11.90;;;8.20;99.90;;;;;;10432519;28;20226;-72
2022/11/28 22:47:54;;;;;;;13.23;11.83;;;8.20;99.90;;;;;;10432463;28;20231;-72
2022/11/28 22:52:55;;;;;;;13.70;11.47;;;8.30;99.90;;;;;;10441231;28;20226;-69
2022/11/28 22:57:58;;;;;;;15.83;12.20;;;8.30;99.90;;;;;;10445077;28;20230;-78
2022/11/28 23:02:59;;;;;;;14.10;12.07;;;8.30;99.90;;;;;;10440140;28;20349;-77
2022/11/28 23:08:00;;;;;;;14.80;11.70;;;8.30;99.90;;;;;;10434082;28;20447;-79
2022/11/28 23:13:00;;;;;;;15.23;12.77;;;8.30;99.90;;;;;;10446517;28;20220;-80
2022/11/28 23:18:01;;;;;;;13.10;11.70;;;8.30;99.90;;;;;;10462117;28;20245;-79
2022/11/28 23:23:01;;;;;;;14.47;12.30;;;8.30;99.90;;;;;;10449477;28;20273;-79
2022/11/28 23:28:02;;;;;;;17.47;12.63;;;8.40;99.90;;;;;;10448177;28;20234;-76
2022/11/28 23:33:03;;;;;;;14.47;12.43;;;8.40;99.90;;;;;;10439289;28;20218;-76
2022/11/28 23:38:06;;;;;;;14.33;12.50;;;8.40;99.90;;;;;;10431335;28;20706;-79
2022/11/28 23:43:07;;;;;;;12.67;11.20;;;8.40;99.90;;;;;;10445879;28;20657;-78
2022/11/28 23:48:11;;;;;;;16.20;11.47;;;8.40;99.90;;;;;;10448131;28;20217;-80
2022/11/28 23:53:12;;;;;;;13.83;11.83;;;8.40;99.90;;;;;;10446125;28;20222;-81
2022/11/28 23:58:16;;;;;;;13.37;11.50;;;8.40;99.90;;;;;;10436381;28;20222;-81
